Time;durP1;ratioP1;P1;durP2;ratioP2;P2;SDS_P1;SDS_P2;PMS_P1;PMS_P2;Temp;Humidity;BMP_temperature;BMP_pressure;BME280_temperature;BME280_humidity;BME280_pressure;Samples;Min_cycle;Max_cycle;Signal;HPM_P1;HPM_P2
2024/01/15 00:01:53;;;;;;;5.03;2.07;;;-0.10;99.90;;;;;;4417616;28;657506;-72
2024/01/15 00:04:40;;;;;;;7.87;3.10;;;0.00;99.90;;;;;;4441849;28;657208;-73
2024/01/15 00:07:27;;;;;;;14.00;7.23;;;0.00;99.90;;;;;;4422735;28;656425;-71
2024/01/15 00:10:15;;;;;;;8.00;2.80;;;0.00;99.90;;;;;;4442712;28;657407;-72
2024/01/15 00:13:02;;;;;;;12.60;4.47;;;0.00;99.90;;;;;;4439292;28;656300;-70
2024/01/15 00:15:51;;;;;;;12.90;5.00;;;0.00;99.90;;;;;;4442531;28;656757;-72
2024/01/15 00:18:38;;;;;;;11.67;4.43;;;0.00;99.90;;;;;;4420782;28;656652;-71
2024/01/15 00:21:25;;;;;;;12.17;4.03;;;0.10;99.90;;;;;;4441449;28;657378;-72
2024/01/15 00:24:14;;;;;;;5.90;2.00;;;0.00;99.90;;;;;;4427576;28;656341;-70
2024/01/15 00:27:01;;;;;;;6.93;3.43;;;0.10;99.90;;;;;;4431242;28;656178;-71
2024/01/15 00:29:50;;;;;;;10.43;5.27;;;0.00;99.90;;;;;;4416137;28;655973;-72
2024/01/15 00:32:39;;;;;;;9.07;3.70;;;0.00;99.90;;;;;;4418931;28;656549;-70
2024/01/15 00:35:26;;;;;;;7.90;2.80;;;0.10;99.90;;;;;;4435794;28;656244;-72
2024/01/15 00:38:13;;;;;;;14.20;5.37;;;0.10;99.90;;;;;;4425378;28;655967;-72
2024/01/15 00:41:00;;;;;;;11.10;4.93;;;0.00;99.90;;;;;;4438767;28;656691;-72
2024/01/15 00:43:49;;;;;;;12.03;5.37;;;-0.10;99.90;;;;;;4416832;28;657556;-71
2024/01/15 00:46:43;;;;;;;13.73;6.00;;;0.00;99.90;;;;;;4444554;28;657882;-73
2024/01/15 00:49:32;;;;;;;7.60;3.55;;;0.00;99.90;;;;;;4420397;28;657248;-72
2024/01/15 00:52:19;;;;;;;12.33;4.47;;;0.10;99.90;;;;;;4414573;28;656219;-71
2024/01/15 00:55:07;;;;;;;8.60;3.97;;;0.10;99.90;;;;;;4442968;28;656785;-72
2024/01/15 00:57:54;;;;;;;12.63;4.63;;;0.10;99.90;;;;;;4417987;28;656159;-72
2024/01/15 01:00:41;;;;;;;11.23;2.97;;;0.10;99.90;;;;;;4436225;28;656536;-72
2024/01/15 01:03:28;;;;;;;7.82;3.38;;;0.00;99.90;;;;;;4431849;28;656948;-72
2024/01/15 01:06:17;;;;;;;12.90;4.17;;;0.00;99.90;;;;;;4450169;28;656299;-73
2024/01/15 01:09:04;;;;;;;6.37;3.33;;;0.00;99.90;;;;;;4422491;28;658112;-72
2024/01/15 01:11:52;;;;;;;9.43;3.83;;;0.10;99.90;;;;;;4450915;28;655889;-73
2024/01/15 01:14:39;;;;;;;10.20;4.20;;;0.00;99.90;;;;;;4421004;28;655615;-72
2024/01/15 01:17:26;;;;;;;12.20;4.53;;;0.10;99.90;;;;;;4441960;28;657162;-72
2024/01/15 01:20:15;;;;;;;9.73;4.68;;;0.10;99.90;;;;;;4429532;28;656337;-73
2024/01/15 01:23:04;;;;;;;11.23;4.13;;;0.00;99.90;;;;;;4442279;28;655372;-71
2024/01/15 01:25:52;;;;;;;8.60;2.80;;;0.10;99.90;;;;;;4446143;28;656708;-72
2024/01/15 01:28:39;;;;;;;11.97;5.67;;;0.10;99.90;;;;;;4423665;28;655957;-72
2024/01/15 01:31:26;;;;;;;10.83;3.00;;;0.10;99.90;;;;;;4443719;28;656304;-72
2024/01/15 01:34:15;;;;;;;5.90;2.53;;;0.00;99.90;;;;;;4425827;28;657130;-73
2024/01/15 01:37:02;;;;;;;10.90;4.37;;;0.00;99.90;;;;;;4437337;28;655658;-71
2024/01/15 01:39:51;;;;;;;13.07;4.17;;;0.00;99.90;;;;;;4452623;28;657312;-73
2024/01/15 01:42:38;;;;;;;10.10;4.60;;;0.10;99.90;;;;;;4424310;28;657752;-72
2024/01/15 01:45:25;;;;;;;10.13;4.87;;;0.00;99.90;;;;;;4439350;28;657981;-71
2024/01/15 01:48:12;;;;;;;9.57;4.25;;;0.00;99.90;;;;;;4421662;28;657504;-71
2024/01/15 01:51:01;;;;;;;9.90;2.90;;;0.00;99.90;;;;;;4444077;28;657765;-73
2024/01/15 01:53:48;;;;;;;11.83;3.97;;;0.10;99.90;;;;;;4423919;28;655895;-71
2024/01/15 01:56:36;;;;;;;6.27;3.67;;;0.10;99.90;;;;;;4444844;28;657104;-72
2024/01/15 01:59:24;;;;;;;6.37;3.07;;;0.10;99.90;;;;;;4419956;28;656125;-73
2024/01/15 02:02:11;;;;;;;3.40;1.90;;;0.10;99.90;;;;;;4440791;28;655560;-72
2024/01/15 02:04:58;;;;;;;8.37;3.67;;;0.10;99.90;;;;;;4417860;28;656314;-73
2024/01/15 02:07:45;;;;;;;3.30;1.42;;;0.10;99.90;;;;;;4445451;28;655645;-72
2024/01/15 02:10:33;;;;;;;6.30;2.70;;;0.10;99.90;;;;;;4417063;28;656069;-71
2024/01/15 02:13:21;;;;;;;3.63;1.97;;;0.10;99.90;;;;;;4446084;28;656102;-72
2024/01/15 02:16:08;;;;;;;10.07;3.42;;;0.10;99.90;;;;;;4418352;28;655588;-73
2024/01/15 02:18:56;;;;;;;3.00;1.47;;;0.00;99.90;;;;;;4428083;28;657146;-71
2024/01/15 02:21:43;;;;;;;5.10;2.17;;;0.00;99.90;;;;;;4405549;28;656509;-72
2024/01/15 02:24:31;;;;;;;7.87;4.00;;;0.00;99.90;;;;;;4429697;28;656628;-73
2024/01/15 02:27:20;;;;;;;7.35;3.20;;;0.00;99.90;;;;;;4402983;28;657608;-72
2024/01/15 02:30:08;;;;;;;9.80;3.57;;;0.00;99.90;;;;;;4419061;28;656246;-71
2024/01/15 02:32:55;;;;;;;2.37;1.43;;;0.00;99.90;;;;;;4426900;28;656598;-72
2024/01/15 02:35:43;;;;;;;6.77;3.03;;;0.00;99.90;;;;;;4408783;28;656747;-71
2024/01/15 02:38:30;;;;;;;5.60;1.67;;;0.00;99.90;;;;;;4424527;28;657117;-71
2024/01/15 02:41:19;;;;;;;7.73;3.50;;;0.00;99.90;;;;;;4417738;28;655656;-70
2024/01/15 02:44:06;;;;;;;9.77;4.73;;;0.00;99.90;;;;;;4419436;28;655459;-72
2024/01/15 02:46:53;;;;;;;4.63;2.17;;;0.00;99.90;;;;;;4406718;28;659433;-72
2024/01/15 02:49:40;;;;;;;8.90;3.83;;;0.00;99.90;;;;;;4429226;28;656405;-73
2024/01/15 02:52:27;;;;;;;4.38;1.67;;;-0.10;99.90;;;;;;4405171;28;655334;-70
2024/01/15 02:55:15;;;;;;;9.67;4.20;;;-0.10;99.90;;;;;;4425313;28;657429;-73
2024/01/15 02:58:04;;;;;;;5.57;2.50;;;0.00;99.90;;;;;;4423722;28;657244;-71
2024/01/15 03:00:51;;;;;;;5.70;2.73;;;0.00;99.90;;;;;;4430254;28;656140;-72
2024/01/15 03:03:39;;;;;;;3.33;1.93;;;0.00;99.90;;;;;;4405139;28;655920;-72
2024/01/15 03:06:26;;;;;;;7.77;3.00;;;0.00;99.90;;;;;;4426979;28;655675;-72
2024/01/15 03:09:13;;;;;;;5.03;2.37;;;0.00;99.90;;;;;;4404083;28;655939;-72
2024/01/15 03:12:00;;;;;;;3.70;1.50;;;0.10;99.90;;;;;;4430188;28;656165;-73
2024/01/15 03:14:49;;;;;;;3.13;1.70;;;0.00;99.90;;;;;;4403581;28;655767;-71
2024/01/15 03:17:36;;;;;;;4.73;1.60;;;0.00;99.90;;;;;;4441591;28;655603;-72
2024/01/15 03:20:23;;;;;;;3.77;1.87;;;0.00;99.90;;;;;;4424048;28;655854;-72
2024/01/15 03:23:10;;;;;;;6.30;3.30;;;0.00;99.90;;;;;;4440101;28;656184;-72
2024/01/15 03:25:58;;;;;;;5.33;2.53;;;-0.10;99.90;;;;;;4421010;28;656100;-70
2024/01/15 03:28:45;;;;;;;2.03;1.23;;;-0.10;99.90;;;;;;4438689;28;657282;-72
2024/01/15 03:31:34;;;;;;;3.60;2.00;;;-0.10;99.90;;;;;;4436748;28;656308;-71
2024/01/15 03:34:21;;;;;;;6.80;3.37;;;-0.10;99.90;;;;;;4437371;28;656724;-72
2024/01/15 03:37:08;;;;;;;7.80;3.47;;;-0.10;99.90;;;;;;4423315;28;656630;-71
2024/01/15 03:39:56;;;;;;;4.03;2.00;;;-0.10;99.90;;;;;;4439173;28;657547;-70
2024/01/15 03:42:43;;;;;;;3.93;2.17;;;-0.10;99.90;;;;;;4422031;28;656904;-72
2024/01/15 03:45:31;;;;;;;3.37;1.77;;;-0.10;99.90;;;;;;4440295;28;657215;-72
2024/01/15 03:48:19;;;;;;;7.37;3.70;;;0.00;99.90;;;;;;4419508;28;657068;-71
2024/01/15 03:51:06;;;;;;;6.63;1.80;;;0.00;99.90;;;;;;4440699;28;655323;-72
2024/01/15 03:53:53;;;;;;;2.95;1.10;;;0.00;99.90;;;;;;4420994;28;655485;-72
2024/01/15 03:56:41;;;;;;;6.53;3.23;;;0.00;99.90;;;;;;4444060;28;657425;-72
2024/01/15 03:59:28;;;;;;;4.67;2.27;;;0.00;99.90;;;;;;4420764;28;655999;-72
2024/01/15 04:02:15;;;;;;;4.20;2.60;;;0.10;99.90;;;;;;4448753;28;656511;-72
2024/01/15 04:05:04;;;;;;;5.03;2.13;;;0.10;99.90;;;;;;4424667;28;655610;-71
2024/01/15 04:07:51;;;;;;;2.33;1.33;;;0.10;99.90;;;;;;4444605;28;655891;-72
2024/01/15 04:10:39;;;;;;;4.27;1.87;;;0.10;99.90;;;;;;4414747;28;656410;-72
2024/01/15 04:13:26;;;;;;;4.00;1.67;;;0.10;99.90;;;;;;4438130;28;655971;-73
2024/01/15 04:16:13;;;;;;;6.53;3.00;;;0.10;99.90;;;;;;4426624;28;655869;-72
2024/01/15 04:19:00;;;;;;;7.13;3.00;;;0.00;99.90;;;;;;4439494;28;655894;-73
2024/01/15 04:21:49;;;;;;;3.30;1.83;;;0.00;99.90;;;;;;4424837;28;656294;-71
2024/01/15 04:24:36;;;;;;;8.40;2.90;;;0.00;99.90;;;;;;4434745;28;655111;-72
2024/01/15 04:27:24;;;;;;;6.80;1.57;;;0.00;99.90;;;;;;4425249;28;655952;-71
2024/01/15 04:30:12;;;;;;;4.50;2.37;;;0.00;99.90;;;;;;4436512;28;655710;-72
2024/01/15 04:32:59;;;;;;;5.20;2.47;;;0.00;99.90;;;;;;4421330;28;656097;-72
2024/01/15 04:35:46;;;;;;;4.23;1.90;;;0.00;99.90;;;;;;4443268;28;655835;-72
2024/01/15 04:38:36;;;;;;;2.90;1.10;;;0.00;99.90;;;;;;4425856;28;655513;-71
2024/01/15 04:41:23;;;;;;;5.77;1.37;;;0.00;99.90;;;;;;4425984;28;656362;-72
2024/01/15 04:44:10;;;;;;;7.33;2.43;;;0.00;99.90;;;;;;4442421;28;656260;-70
2024/01/15 04:46:57;;;;;;;3.78;1.60;;;-0.10;99.90;;;;;;4426412;28;655562;-71
2024/01/15 04:49:45;;;;;;;3.03;1.63;;;0.00;99.90;;;;;;4450279;28;657117;-72
2024/01/15 04:52:32;;;;;;;2.47;1.47;;;0.00;99.90;;;;;;4435743;28;655539;-71
2024/01/15 04:55:21;;;;;;;3.03;1.30;;;0.00;99.90;;;;;;4423303;28;656416;-71
2024/01/15 04:58:08;;;;;;;4.13;1.80;;;0.00;99.90;;;;;;4426102;28;655552;-71
2024/01/15 05:00:55;;;;;;;5.93;2.47;;;0.00;99.90;;;;;;4443338;28;655066;-71
2024/01/15 05:03:42;;;;;;;3.70;1.37;;;0.00;99.90;;;;;;4427725;28;656051;-72
2024/01/15 05:06:30;;;;;;;2.13;1.10;;;0.00;99.90;;;;;;4447832;28;656033;-72
2024/01/15 05:09:17;;;;;;;5.73;2.43;;;0.00;99.90;;;;;;4438622;28;655638;-71
2024/01/15 05:12:07;;;;;;;5.27;1.97;;;-0.10;99.90;;;;;;4442038;28;656800;-72
2024/01/15 05:14:54;;;;;;;5.50;2.77;;;0.00;99.90;;;;;;4415970;28;658525;-71
2024/01/15 05:17:41;;;;;;;5.63;1.97;;;0.10;99.90;;;;;;4438945;28;655028;-72
2024/01/15 05:20:28;;;;;;;5.83;1.80;;;0.00;99.90;;;;;;4420560;28;655783;-72
2024/01/15 05:23:15;;;;;;;7.57;2.47;;;0.00;99.90;;;;;;4444574;28;655922;-72
2024/01/15 05:26:03;;;;;;;6.13;1.73;;;0.00;99.90;;;;;;4424111;28;655659;-71
2024/01/15 05:28:51;;;;;;;4.03;2.03;;;0.10;99.90;;;;;;4443652;28;657359;-72
2024/01/15 05:31:38;;;;;;;1.60;1.00;;;0.00;99.90;;;;;;4424344;28;656080;-72
2024/01/15 05:34:26;;;;;;;9.07;2.27;;;0.00;99.90;;;;;;4446165;28;655895;-72
2024/01/15 05:37:13;;;;;;;2.07;1.03;;;-0.10;99.90;;;;;;4427138;28;655946;-71
2024/01/15 05:40:00;;;;;;;4.43;1.57;;;0.00;99.90;;;;;;4441204;28;656477;-72
2024/01/15 05:42:47;;;;;;;8.60;2.90;;;0.00;99.90;;;;;;4430439;28;655292;-71
2024/01/15 05:45:38;;;;;;;5.97;2.93;;;-0.10;99.90;;;;;;4445473;28;655467;-72
2024/01/15 05:48:25;;;;;;;5.93;2.17;;;0.00;99.90;;;;;;4413895;28;657188;-72
2024/01/15 05:51:13;;;;;;;7.70;3.10;;;0.00;99.90;;;;;;4423935;28;656444;-72
2024/01/15 05:54:00;;;;;;;10.37;2.90;;;-0.10;99.90;;;;;;4429440;28;656367;-71
2024/01/15 05:56:47;;;;;;;4.60;2.13;;;-0.10;99.90;;;;;;4420688;28;657643;-71
2024/01/15 05:59:36;;;;;;;6.93;2.10;;;0.00;99.90;;;;;;4446665;28;656660;-72
2024/01/15 06:02:24;;;;;;;5.80;2.33;;;-0.10;99.90;;;;;;4427325;28;655716;-71
2024/01/15 06:05:11;;;;;;;4.40;1.93;;;-0.10;99.90;;;;;;4448943;28;656504;-72
2024/01/15 06:07:58;;;;;;;3.63;1.77;;;0.00;99.90;;;;;;4421692;28;657834;-72
2024/01/15 06:10:46;;;;;;;5.77;2.70;;;-0.10;99.90;;;;;;4438438;28;655869;-71
2024/01/15 06:13:33;;;;;;;4.37;1.83;;;-0.10;99.90;;;;;;4419331;28;656764;-72
2024/01/15 06:16:21;;;;;;;4.90;2.07;;;0.00;99.90;;;;;;4444014;28;656711;-72
2024/01/15 06:19:10;;;;;;;5.13;2.23;;;0.00;99.90;;;;;;4420333;28;655322;-73
2024/01/15 06:21:57;;;;;;;6.50;2.57;;;0.00;99.90;;;;;;4439855;28;656066;-72
2024/01/15 06:24:45;;;;;;;7.90;2.80;;;0.00;99.90;;;;;;4444002;28;656546;-73
2024/01/15 06:27:32;;;;;;;3.57;1.27;;;-0.10;99.90;;;;;;4441058;28;655468;-72
2024/01/15 06:30:19;;;;;;;7.83;2.77;;;0.00;99.90;;;;;;4418651;28;657896;-72
2024/01/15 06:33:06;;;;;;;7.83;2.63;;;0.00;99.90;;;;;;4440033;28;655955;-72
2024/01/15 06:35:55;;;;;;;3.90;2.00;;;0.00;99.90;;;;;;4417930;28;656285;-72
2024/01/15 06:38:44;;;;;;;6.20;2.20;;;0.00;99.90;;;;;;4418114;28;655612;-72
2024/01/15 06:41:31;;;;;;;5.80;1.77;;;0.00;99.90;;;;;;4438539;28;655257;-72
2024/01/15 06:44:21;;;;;;;7.07;2.25;;;0.00;99.90;;;;;;4421303;28;655429;-72
2024/01/15 06:47:08;;;;;;;7.27;2.37;;;0.10;99.90;;;;;;4422737;28;656182;-72
2024/01/15 06:49:55;;;;;;;4.10;1.87;;;0.10;99.90;;;;;;4435845;28;655886;-72
2024/01/15 06:52:44;;;;;;;5.57;2.30;;;0.00;99.90;;;;;;4435541;28;655847;-72
2024/01/15 06:55:31;;;;;;;4.80;2.33;;;0.00;99.90;;;;;;4433983;28;655370;-72
2024/01/15 06:58:18;;;;;;;4.87;1.93;;;0.00;99.90;;;;;;4426394;28;656117;-71
2024/01/15 07:01:05;;;;;;;8.00;3.87;;;0.00;99.90;;;;;;4448271;28;656484;-73
2024/01/15 07:03:53;;;;;;;10.03;3.23;;;0.00;99.90;;;;;;4424121;28;656046;-72
2024/01/15 07:06:40;;;;;;;4.23;2.63;;;0.00;99.90;;;;;;4439983;28;657507;-72
2024/01/15 07:09:29;;;;;;;4.77;2.33;;;0.00;99.90;;;;;;4424234;28;655614;-72
2024/01/15 07:12:16;;;;;;;4.93;2.07;;;0.00;99.90;;;;;;4439240;28;655849;-72
2024/01/15 07:15:04;;;;;;;6.47;2.17;;;0.00;99.90;;;;;;4422722;28;656220;-72
2024/01/15 07:17:51;;;;;;;12.50;3.40;;;0.00;99.90;;;;;;4443131;28;656258;-72
2024/01/15 07:20:38;;;;;;;8.20;3.53;;;0.00;99.90;;;;;;4421852;28;657018;-72
2024/01/15 07:23:25;;;;;;;3.70;1.90;;;0.00;99.90;;;;;;4445436;28;658181;-73
2024/01/15 07:26:14;;;;;;;6.90;3.37;;;0.00;99.90;;;;;;4424706;28;655381;-73
2024/01/15 07:29:01;;;;;;;4.13;1.97;;;-0.10;99.90;;;;;;4439774;28;655981;-73
2024/01/15 07:31:50;;;;;;;9.07;3.77;;;0.00;99.90;;;;;;4415571;28;656988;-72
2024/01/15 07:34:38;;;;;;;7.37;2.93;;;0.00;99.90;;;;;;4422376;28;656366;-73
2024/01/15 07:37:25;;;;;;;6.33;3.37;;;0.00;99.90;;;;;;4445940;28;655827;-72
2024/01/15 07:40:12;;;;;;;3.93;2.07;;;0.00;99.90;;;;;;4430999;28;655807;-73
2024/01/15 07:43:01;;;;;;;6.67;2.50;;;0.00;99.90;;;;;;4443942;28;655857;-72
2024/01/15 07:45:49;;;;;;;9.40;3.73;;;0.00;99.90;;;;;;4416217;28;655527;-73
2024/01/15 07:48:36;;;;;;;5.27;2.77;;;0.00;99.90;;;;;;4439017;28;655713;-72
2024/01/15 07:51:23;;;;;;;5.57;2.57;;;0.00;99.90;;;;;;4425754;28;655363;-72
2024/01/15 07:54:11;;;;;;;9.13;3.80;;;0.00;99.90;;;;;;4443200;28;656040;-72
2024/01/15 07:56:59;;;;;;;9.90;3.87;;;0.00;99.90;;;;;;4422841;28;656070;-72
2024/01/15 07:59:48;;;;;;;6.30;2.77;;;0.00;99.90;;;;;;4440940;28;655971;-73
2024/01/15 08:02:35;;;;;;;4.17;2.00;;;0.00;99.90;;;;;;4420601;28;655662;-73
2024/01/15 08:05:23;;;;;;;5.47;2.75;;;0.00;99.90;;;;;;4423879;28;655746;-72
2024/01/15 08:08:10;;;;;;;9.97;2.90;;;0.00;99.90;;;;;;4441977;28;656014;-72
2024/01/15 08:10:58;;;;;;;9.77;3.90;;;0.00;99.90;;;;;;4423910;28;656563;-72
2024/01/15 08:13:45;;;;;;;9.87;4.13;;;0.00;99.90;;;;;;4449910;28;657536;-73
2024/01/15 08:16:34;;;;;;;6.73;2.40;;;0.10;99.90;;;;;;4443761;28;655189;-72
2024/01/15 08:19:21;;;;;;;7.77;3.17;;;0.10;99.90;;;;;;4445027;28;655434;-73
2024/01/15 08:22:08;;;;;;;12.48;4.10;;;0.00;99.90;;;;;;4418546;28;656265;-72
2024/01/15 08:24:56;;;;;;;9.63;4.10;;;0.00;99.90;;;;;;4449129;28;657792;-73
2024/01/15 08:27:43;;;;;;;9.97;3.97;;;0.00;99.90;;;;;;4424499;28;655504;-72
2024/01/15 08:30:30;;;;;;;7.63;3.17;;;-0.10;99.90;;;;;;4442218;28;655569;-72
2024/01/15 08:33:19;;;;;;;7.77;3.10;;;-0.10;99.90;;;;;;4423374;28;657202;-72
2024/01/15 08:36:06;;;;;;;12.30;5.17;;;-0.20;99.90;;;;;;4443523;28;656711;-73
2024/01/15 08:38:53;;;;;;;10.38;3.95;;;-0.20;99.90;;;;;;4414130;28;658094;-72
2024/01/15 08:41:41;;;;;;;10.47;4.27;;;-0.20;99.90;;;;;;4441772;28;657822;-73
2024/01/15 08:44:28;;;;;;;9.80;4.10;;;-0.20;99.90;;;;;;4419342;28;657529;-72
2024/01/15 08:47:15;;;;;;;9.00;2.97;;;-0.20;99.90;;;;;;4436007;28;657464;-72
2024/01/15 08:50:05;;;;;;;14.37;6.30;;;-0.20;99.90;;;;;;4435185;28;657664;-72
2024/01/15 08:52:52;;;;;;;3.07;1.70;;;-0.30;99.90;;;;;;4438364;28;658239;-73
2024/01/15 08:55:39;;;;;;;10.53;4.17;;;-0.20;99.90;;;;;;4425583;28;656510;-72
2024/01/15 08:58:27;;;;;;;12.17;5.60;;;-0.30;99.90;;;;;;4443647;28;658123;-72
2024/01/15 09:01:14;;;;;;;13.50;6.20;;;-0.30;99.90;;;;;;4421663;28;658533;-72
2024/01/15 09:04:01;;;;;;;8.73;3.17;;;-0.40;99.90;;;;;;4436542;28;657668;-72
2024/01/15 09:06:50;;;;;;;10.93;4.70;;;-0.30;99.90;;;;;;4425228;28;656349;-73
2024/01/15 09:09:37;;;;;;;11.97;4.50;;;-0.10;99.90;;;;;;4440776;28;658420;-72
2024/01/15 09:12:25;;;;;;;13.40;5.93;;;-0.10;99.90;;;;;;4446707;28;657231;-72
2024/01/15 09:15:12;;;;;;;13.60;5.10;;;-0.20;99.90;;;;;;4436813;28;657786;-72
2024/01/15 09:17:59;;;;;;;15.67;5.47;;;-0.30;99.90;;;;;;4422150;28;658618;-72
2024/01/15 09:20:46;;;;;;;11.70;5.40;;;-0.30;99.90;;;;;;4446399;28;657786;-72
2024/01/15 09:23:35;;;;;;;14.07;6.97;;;-0.70;99.90;;;;;;4421823;28;657711;-72
2024/01/15 09:26:23;;;;;;;20.87;7.73;;;-0.50;99.90;;;;;;4435969;28;658598;-72
2024/01/15 09:29:11;;;;;;;16.20;6.85;;;-0.30;99.90;;;;;;4444278;28;657644;-72
2024/01/15 09:31:58;;;;;;;14.03;5.20;;;-0.30;99.90;;;;;;4421511;28;658265;-72
2024/01/15 09:34:46;;;;;;;18.40;7.57;;;-0.40;99.90;;;;;;4446243;28;658380;-72
2024/01/15 09:37:34;;;;;;;19.33;7.53;;;-0.30;99.90;;;;;;4414006;28;657367;-73
2024/01/15 09:40:22;;;;;;;17.90;6.50;;;-0.20;99.90;;;;;;4441237;28;657769;-72
2024/01/15 09:43:09;;;;;;;18.20;6.07;;;-0.30;99.90;;;;;;4423533;28;658237;-72
2024/01/15 09:45:57;;;;;;;14.57;6.30;;;-0.30;99.90;;;;;;4442843;28;657233;-71
2024/01/15 09:48:44;;;;;;;26.67;9.53;;;-0.60;99.90;;;;;;4422738;28;657368;-72
2024/01/15 09:51:32;;;;;;;15.77;4.83;;;-0.90;99.90;;;;;;4435353;28;657241;-72
2024/01/15 09:54:19;;;;;;;18.83;6.97;;;-0.80;99.90;;;;;;4420427;28;658090;-72
2024/01/15 09:57:07;;;;;;;7.97;3.47;;;-0.80;99.90;;;;;;4437463;28;657443;-72
2024/01/15 09:59:55;;;;;;;23.40;9.77;;;-0.70;99.90;;;;;;4419328;28;657736;-72
2024/01/15 10:02:42;;;;;;;11.70;4.60;;;-0.70;99.90;;;;;;4412501;28;657616;-72
2024/01/15 10:05:30;;;;;;;20.23;8.47;;;-0.70;99.90;;;;;;4435093;28;657965;-72
2024/01/15 10:08:17;;;;;;;14.53;5.47;;;-0.60;99.90;;;;;;4445224;28;657646;-73
2024/01/15 10:11:04;;;;;;;16.90;7.47;;;-0.40;99.90;;;;;;4420965;28;658724;-72
2024/01/15 10:13:53;;;;;;;11.93;4.10;;;-0.20;99.90;;;;;;4443926;28;657192;-72
2024/01/15 10:16:40;;;;;;;13.33;5.80;;;0.00;99.90;;;;;;4422522;28;657653;-72
2024/01/15 10:19:27;;;;;;;10.40;5.03;;;0.20;99.90;;;;;;4426445;28;656897;-71
2024/01/15 10:22:15;;;;;;;18.33;9.77;;;0.30;99.90;;;;;;4441973;28;658179;-72
2024/01/15 10:25:03;;;;;;;12.93;4.63;;;0.30;99.90;;;;;;4423620;28;657295;-72
2024/01/15 10:28:02;;;;;;;19.47;7.40;;;0.20;99.90;;;;;;4443286;28;656948;-72
2024/01/15 10:30:56;;;;;;;14.27;6.20;;;0.60;99.90;;;;;;4399111;28;656386;-72
2024/01/15 10:33:44;;;;;;;17.30;6.43;;;1.10;99.90;;;;;;4419316;28;657598;-72
2024/01/15 10:36:31;;;;;;;11.47;5.10;;;1.20;99.90;;;;;;4445332;28;656764;-73
2024/01/15 10:39:18;;;;;;;18.00;6.53;;;1.20;99.90;;;;;;4420528;28;656258;-73
2024/01/15 10:42:06;;;;;;;12.13;5.27;;;0.90;99.90;;;;;;4441717;28;656724;-73
2024/01/15 10:44:53;;;;;;;20.03;7.47;;;1.40;99.90;;;;;;4423925;28;656712;-72
2024/01/15 10:47:41;;;;;;;16.33;7.00;;;1.00;99.90;;;;;;4445101;28;656845;-73
2024/01/15 10:50:29;;;;;;;11.93;4.83;;;0.90;99.90;;;;;;4413809;28;656226;-74
2024/01/15 10:53:17;;;;;;;18.37;6.93;;;1.20;99.90;;;;;;4447091;28;656768;-73
2024/01/15 10:56:05;;;;;;;16.03;6.00;;;1.00;99.90;;;;;;4410000;28;658142;-72
2024/01/15 10:58:53;;;;;;;12.10;4.87;;;1.30;99.90;;;;;;4409670;28;656464;-73
2024/01/15 11:01:40;;;;;;;15.57;5.47;;;0.90;99.90;;;;;;4440437;28;657925;-73
2024/01/15 11:04:29;;;;;;;18.58;7.18;;;0.60;99.90;;;;;;4428933;28;656224;-73
2024/01/15 11:07:16;;;;;;;16.13;7.20;;;0.10;99.90;;;;;;4436403;28;656613;-72
2024/01/15 11:10:05;;;;;;;19.47;7.70;;;0.10;99.90;;;;;;4421638;28;656639;-72
2024/01/15 11:12:52;;;;;;;13.60;5.07;;;0.00;99.90;;;;;;4439848;28;656456;-72
2024/01/15 11:15:59;;;;;;;16.70;6.17;;;-0.10;99.90;;;;;;4438329;28;656851;-72
2024/01/15 11:19:06;;;;;;;14.57;5.53;;;0.00;99.90;;;;;;4389904;28;657367;-72
2024/01/15 11:21:55;;;;;;;25.47;9.87;;;0.10;99.90;;;;;;4379635;28;657352;-72
2024/01/15 11:24:43;;;;;;;23.08;10.77;;;0.30;99.90;;;;;;4408956;28;656822;-73
2024/01/15 11:27:40;;;;;;;20.43;9.23;;;0.30;99.90;;;;;;4425968;28;658106;-73
2024/01/15 11:30:27;;;;;;;10.05;4.22;;;0.10;99.90;;;;;;4402134;28;657077;-72
2024/01/15 11:33:36;;;;;;;19.50;7.93;;;0.00;99.90;;;;;;4422558;28;657222;-72
2024/01/15 11:36:23;;;;;;;18.53;7.57;;;0.10;99.90;;;;;;4407911;28;656585;-73
2024/01/15 11:42:20;;;;;;;25.80;6.87;;;0.10;99.90;;;;;;4922881;27;131609;-72
2024/01/15 11:45:08;;;;;;;15.40;6.17;;;0.00;99.90;;;;;;4441328;28;650624;-72
2024/01/15 11:48:11;;;;;;;11.97;5.43;;;-0.10;99.90;;;;;;4459977;28;651427;-72
2024/01/15 11:50:58;;;;;;;19.33;7.68;;;0.00;99.90;;;;;;4444881;28;651816;-72
2024/01/15 11:53:48;;;;;;;14.23;6.27;;;-0.10;99.90;;;;;;4461222;28;650814;-73
2024/01/15 11:56:35;;;;;;;15.10;6.00;;;-0.10;99.90;;;;;;4440961;28;652237;-73
2024/01/15 11:59:24;;;;;;;20.83;8.70;;;-0.10;99.90;;;;;;4447663;28;653823;-72
2024/01/15 12:02:12;;;;;;;14.47;6.57;;;-0.10;99.90;;;;;;4461259;28;652231;-72
2024/01/15 12:05:00;;;;;;;12.27;5.73;;;-0.10;99.90;;;;;;4436381;28;652736;-72
2024/01/15 12:07:47;;;;;;;12.03;5.23;;;-0.10;99.90;;;;;;4454961;28;652748;-73
2024/01/15 12:10:35;;;;;;;14.68;7.53;;;-0.10;99.90;;;;;;4439712;28;654295;-72
2024/01/15 12:13:22;;;;;;;16.03;6.67;;;-0.10;99.90;;;;;;4444106;28;654907;-73
2024/01/15 12:16:12;;;;;;;18.83;5.57;;;-0.10;99.90;;;;;;4459028;27;653767;-72
2024/01/15 12:19:00;;;;;;;14.93;6.80;;;0.00;99.90;;;;;;4420203;28;654159;-72
2024/01/15 12:21:47;;;;;;;14.43;5.77;;;-0.10;99.90;;;;;;4452239;28;651762;-72
2024/01/15 12:24:35;;;;;;;18.63;7.97;;;-0.10;99.90;;;;;;4447548;28;653961;-72
2024/01/15 12:27:22;;;;;;;22.60;8.73;;;-0.20;99.90;;;;;;4449072;28;653516;-72
2024/01/15 12:30:12;;;;;;;17.57;7.67;;;-0.20;99.90;;;;;;4445044;28;653995;-72
2024/01/15 12:33:02;;;;;;;23.65;8.55;;;-0.20;99.90;;;;;;4443723;28;654206;-72
2024/01/15 12:35:49;;;;;;;25.73;11.60;;;-0.20;99.90;;;;;;4436590;28;655106;-73
2024/01/15 12:38:36;;;;;;;18.10;6.80;;;-0.20;99.90;;;;;;4473495;28;655770;-75
2024/01/15 12:41:24;;;;;;;19.87;10.83;;;-0.20;99.90;;;;;;4444745;27;653453;-72
2024/01/15 12:44:11;;;;;;;14.57;5.67;;;-0.20;99.90;;;;;;4473809;27;655152;-72
2024/01/15 12:46:58;;;;;;;24.50;11.63;;;-0.20;99.90;;;;;;4454783;27;653073;-72
2024/01/15 12:49:53;;;;;;;19.60;6.73;;;-0.20;99.90;;;;;;4474601;27;655472;-71
2024/01/15 12:52:41;;;;;;;21.37;8.47;;;-0.20;99.90;;;;;;4435874;27;653946;-72
2024/01/15 12:55:28;;;;;;;22.83;10.37;;;-0.20;99.90;;;;;;4441452;28;654298;-72
2024/01/15 12:58:15;;;;;;;17.03;7.27;;;-0.20;99.90;;;;;;4456193;28;655530;-72
2024/01/15 13:01:03;;;;;;;25.03;8.83;;;-0.20;99.90;;;;;;4437800;28;653481;-72
2024/01/15 13:03:50;;;;;;;25.23;10.90;;;-0.20;99.90;;;;;;4458015;28;654198;-72
2024/01/15 13:06:39;;;;;;;24.53;11.50;;;-0.20;99.90;;;;;;4459486;28;654895;-72
2024/01/15 13:09:26;;;;;;;23.63;10.53;;;-0.20;99.90;;;;;;4461960;28;654533;-72
2024/01/15 13:12:13;;;;;;;17.23;6.93;;;-0.20;99.90;;;;;;4439611;28;654290;-72
2024/01/15 13:15:03;;;;;;;11.83;5.63;;;-0.20;99.90;;;;;;4461845;27;654073;-72
2024/01/15 13:17:50;;;;;;;27.40;11.60;;;-0.10;99.90;;;;;;4440657;28;655795;-72
2024/01/15 13:20:37;;;;;;;15.73;6.87;;;-0.20;99.90;;;;;;4450156;27;654335;-71
2024/01/15 13:23:26;;;;;;;11.67;5.63;;;0.00;99.90;;;;;;4463659;27;654167;-72
2024/01/15 13:26:14;;;;;;;13.50;4.80;;;-0.10;99.90;;;;;;4444855;27;652765;-71
2024/01/15 13:29:01;;;;;;;24.77;9.17;;;-0.10;99.90;;;;;;4460821;28;653736;-72
2024/01/15 13:31:49;;;;;;;26.90;10.00;;;-0.20;99.90;;;;;;4442704;28;653992;-72
2024/01/15 13:34:36;;;;;;;15.90;7.40;;;-0.30;99.90;;;;;;4451883;28;654757;-72
2024/01/15 13:37:24;;;;;;;9.13;4.47;;;-0.20;99.90;;;;;;4430772;28;653789;-73
2024/01/15 13:40:16;;;;;;;14.47;6.30;;;-0.20;99.90;;;;;;4457881;28;652538;-72
2024/01/15 13:43:06;;;;;;;10.10;5.10;;;-0.20;99.90;;;;;;4430417;28;653907;-72
2024/01/15 13:45:54;;;;;;;15.50;5.47;;;-0.30;99.90;;;;;;4427126;28;653673;-71
2024/01/15 13:48:41;;;;;;;15.30;5.40;;;-0.30;99.90;;;;;;4465682;28;653060;-72
2024/01/15 13:51:29;;;;;;;20.60;8.20;;;-0.30;99.90;;;;;;4445866;28;653980;-71
2024/01/15 13:54:17;;;;;;;24.53;7.43;;;-0.30;99.90;;;;;;4459724;28;653245;-72
2024/01/15 13:57:05;;;;;;;14.00;6.97;;;-0.40;99.90;;;;;;4439017;28;654217;-72
2024/01/15 13:59:52;;;;;;;22.23;8.32;;;-0.40;99.90;;;;;;4435176;28;653459;-72
2024/01/15 14:02:40;;;;;;;17.50;7.07;;;-0.40;99.90;;;;;;4466667;28;653506;-71
2024/01/15 14:05:27;;;;;;;11.67;5.27;;;-0.40;99.90;;;;;;4454187;28;653860;-72
2024/01/15 14:08:15;;;;;;;21.73;9.50;;;-0.40;99.90;;;;;;4468016;28;653981;-72
2024/01/15 14:11:03;;;;;;;10.80;4.40;;;-0.30;99.90;;;;;;4459612;28;654015;-71
2024/01/15 14:13:51;;;;;;;15.80;3.90;;;-0.30;99.90;;;;;;4458128;28;654777;-72
2024/01/15 14:16:38;;;;;;;22.57;7.37;;;-0.30;99.90;;;;;;4442966;28;653383;-71
2024/01/15 14:19:26;;;;;;;12.95;4.60;;;-0.40;99.90;;;;;;4462953;28;653908;-72
2024/01/15 14:22:13;;;;;;;20.10;8.57;;;-0.40;99.90;;;;;;4439664;28;653168;-72
2024/01/15 14:25:00;;;;;;;11.80;4.73;;;-0.40;99.90;;;;;;4463198;28;654806;-72
2024/01/15 14:27:47;;;;;;;15.23;5.93;;;-0.40;99.90;;;;;;4451142;28;653956;-72